createdAt,value
2023-04-02T00:02:23.825Z,88.40
2023-04-02T00:05:19.713Z,88.10
2023-04-02T00:07:51.502Z,88.10
2023-04-02T00:10:38.066Z,88.40
2023-04-02T00:13:07.020Z,88.30
2023-04-02T00:15:34.635Z,88.20
2023-04-02T00:18:03.116Z,88.00
2023-04-02T00:20:37.042Z,88.10
2023-04-02T00:23:04.652Z,88.70
2023-04-02T00:25:36.880Z,88.80
2023-04-02T00:28:04.293Z,88.60
2023-04-02T00:30:31.911Z,88.20
2023-04-02T00:32:59.493Z,88.30
2023-04-02T00:35:29.133Z,88.60
2023-04-02T00:37:57.156Z,88.80
2023-04-02T00:40:26.736Z,88.60
2023-04-02T00:42:56.571Z,88.30
2023-04-02T00:45:30.015Z,88.50
2023-04-02T00:48:00.049Z,88.40
2023-04-02T00:50:33.015Z,88.30
2023-04-02T00:53:04.341Z,88.20
2023-04-02T00:55:41.383Z,88.00
2023-04-02T00:58:36.784Z,87.90
2023-04-02T01:01:04.631Z,87.80
2023-04-02T01:03:39.014Z,87.90
2023-04-02T01:06:16.835Z,87.40
2023-04-02T01:09:01.657Z,87.70
2023-04-02T01:11:35.606Z,88.30
2023-04-02T01:14:16.862Z,88.70
2023-04-02T01:16:57.285Z,88.50
2023-04-02T01:19:58.469Z,88.00
2023-04-02T01:22:35.220Z,88.00
2023-04-02T01:25:04.504Z,87.90
2023-04-02T01:27:47.786Z,88.30
2023-04-02T01:30:15.988Z,88.50
2023-04-02T01:32:43.460Z,88.70
2023-04-02T01:35:11.217Z,88.20
2023-04-02T01:37:49.744Z,88.70
2023-04-02T01:40:25.876Z,88.30
2023-04-02T01:43:14.287Z,88.00
2023-04-02T01:45:42.105Z,87.50
2023-04-02T01:48:27.804Z,87.60
2023-04-02T01:50:56.693Z,87.50
2023-04-02T01:53:29.059Z,87.60
2023-04-02T01:55:59.650Z,88.40
2023-04-02T01:58:31.879Z,88.40
2023-04-02T02:01:04.189Z,88.30
2023-04-02T02:03:32.526Z,88.10
2023-04-02T02:06:01.703Z,88.50
2023-04-02T02:08:41.521Z,88.20
2023-04-02T02:11:14.835Z,87.90
2023-04-02T02:13:47.696Z,87.60
2023-04-02T02:16:18.211Z,87.90
2023-04-02T02:18:53.573Z,88.40
2023-04-02T02:21:31.835Z,87.90
2023-04-02T02:24:01.123Z,87.30
2023-04-02T02:26:33.945Z,87.80
2023-04-02T02:29:03.673Z,88.00
2023-04-02T02:31:33.410Z,87.90
2023-04-02T02:34:12.427Z,87.60
2023-04-02T02:36:50.740Z,87.90
2023-04-02T02:39:28.037Z,88.00
2023-04-02T02:42:02.888Z,88.00
2023-04-02T02:44:36.458Z,88.00
2023-04-02T02:47:19.049Z,88.10
2023-04-02T02:49:50.004Z,87.90
2023-04-02T02:52:34.633Z,87.70
2023-04-02T02:55:16.482Z,87.20
2023-04-02T02:58:09.836Z,87.50
2023-04-02T03:00:45.622Z,87.00
2023-04-02T03:03:19.492Z,87.20
2023-04-02T03:05:54.838Z,87.60
2023-04-02T03:08:48.410Z,87.80
2023-04-02T03:11:51.538Z,88.10
2023-04-02T03:14:44.189Z,87.70
2023-04-02T03:17:18.676Z,88.00
2023-04-02T03:20:20.391Z,88.00
2023-04-02T03:23:14.695Z,87.60
2023-04-02T03:25:51.518Z,87.30
2023-04-02T03:28:26.401Z,87.40
2023-04-02T03:30:59.775Z,87.60
2023-04-02T03:33:34.266Z,87.80
2023-04-02T03:36:43.662Z,87.60
2023-04-02T03:39:30.169Z,87.10
2023-04-02T03:42:26.187Z,86.90
2023-04-02T03:45:07.719Z,86.90
2023-04-02T03:47:45.921Z,86.90
2023-04-02T03:50:31.309Z,86.90
2023-04-02T03:53:01.564Z,87.50
2023-04-02T03:55:39.236Z,88.00
2023-04-02T03:58:16.859Z,87.90
2023-04-02T04:00:55.947Z,87.80
2023-04-02T04:03:32.148Z,87.20
2023-04-02T04:06:29.277Z,87.40
2023-04-02T04:09:05.940Z,87.40
2023-04-02T04:11:36.822Z,87.10
2023-04-02T04:14:29.466Z,87.40
2023-04-02T04:17:17.280Z,87.60
2023-04-02T04:20:08.742Z,87.30
2023-04-02T04:22:36.193Z,87.80
2023-04-02T04:25:33.944Z,87.20
2023-04-02T04:28:31.482Z,87.20
2023-04-02T04:31:17.839Z,88.00
2023-04-02T04:33:50.674Z,87.80
2023-04-02T04:36:32.754Z,87.70
2023-04-02T04:39:16.792Z,88.00
2023-04-02T04:41:49.615Z,87.00
2023-04-02T04:44:49.266Z,86.30
2023-04-02T04:47:21.769Z,86.70
2023-04-02T04:49:56.813Z,87.10
2023-04-02T04:52:34.388Z,86.70
2023-04-02T04:55:02.350Z,86.80
2023-04-02T04:57:39.972Z,87.10
2023-04-02T05:00:26.020Z,86.80
2023-04-02T05:03:18.648Z,87.00
2023-04-02T05:05:46.289Z,87.40
2023-04-02T05:08:22.877Z,87.30
2023-04-02T05:10:54.955Z,87.10
2023-04-02T05:13:30.354Z,87.30
2023-04-02T05:16:35.151Z,87.10
2023-04-02T05:19:21.169Z,87.70
2023-04-02T05:22:12.533Z,87.90
2023-04-02T05:24:54.803Z,87.80
2023-04-02T05:27:28.785Z,87.30
2023-04-02T05:30:14.024Z,86.60
2023-04-02T05:32:47.434Z,87.10
2023-04-02T05:35:21.156Z,87.40
2023-04-02T05:37:48.761Z,87.00
2023-04-02T05:40:26.460Z,87.20
2023-04-02T05:42:55.753Z,86.60
2023-04-02T05:45:36.934Z,86.90
2023-04-02T05:48:35.471Z,86.50
2023-04-02T05:51:28.149Z,86.20
2023-04-02T05:54:00.408Z,86.70
2023-04-02T05:56:44.718Z,86.80
2023-04-02T05:59:17.943Z,86.20
2023-04-02T06:02:31.013Z,85.90
2023-04-02T06:05:17.713Z,86.60
2023-04-02T06:07:54.089Z,85.70
2023-04-02T06:10:44.053Z,85.70
2023-04-02T06:13:17.578Z,85.60
2023-04-02T06:15:47.651Z,86.20
2023-04-02T06:18:24.868Z,86.10
2023-04-02T06:20:53.327Z,85.30
2023-04-02T06:23:43.795Z,85.60
2023-04-02T06:26:32.115Z,85.00
2023-04-02T06:29:15.841Z,84.90
2023-04-02T06:31:52.262Z,85.10
2023-04-02T06:34:24.436Z,84.80
2023-04-02T06:37:11.307Z,85.30
2023-04-02T06:39:38.180Z,85.80
2023-04-02T06:42:15.972Z,86.30
2023-04-02T06:45:00.799Z,85.70
2023-04-02T06:47:51.698Z,85.80
2023-04-02T06:50:33.126Z,86.10
2023-04-02T06:53:09.720Z,84.70
2023-04-02T06:55:52.760Z,85.40
2023-04-02T06:58:24.086Z,84.80
2023-04-02T07:00:52.245Z,85.10
2023-04-02T07:03:30.437Z,85.40
2023-04-02T07:06:02.752Z,85.00
2023-04-02T07:08:32.125Z,84.30
2023-04-02T07:10:59.440Z,84.30
2023-04-02T07:13:26.846Z,84.50
2023-04-02T07:15:56.354Z,84.40
2023-04-02T07:18:29.346Z,85.00
2023-04-02T07:20:57.888Z,84.80
2023-04-02T07:23:26.449Z,84.90
2023-04-02T07:25:55.182Z,85.40
2023-04-02T07:28:23.152Z,84.40
2023-04-02T07:30:52.302Z,84.80
2023-04-02T07:33:22.626Z,84.00
2023-04-02T07:35:50.406Z,83.60
2023-04-02T07:38:17.431Z,83.90
2023-04-02T07:40:44.372Z,85.20
2023-04-02T07:43:11.580Z,84.30
2023-04-02T07:45:38.926Z,84.10
2023-04-02T07:48:11.934Z,84.30
2023-04-02T07:50:38.849Z,84.30
2023-04-02T07:53:07.089Z,83.60
2023-04-02T07:55:37.066Z,83.50
2023-04-02T07:58:04.224Z,83.80
2023-04-02T08:00:31.179Z,84.40
2023-04-02T08:02:58.051Z,83.20
2023-04-02T08:05:25.337Z,83.80
2023-04-02T08:07:56.960Z,84.30
2023-04-02T08:10:24.604Z,84.60
2023-04-02T08:12:51.693Z,84.00
2023-04-02T08:15:18.654Z,83.80
2023-04-02T08:17:46.391Z,84.60
2023-04-02T08:20:19.785Z,85.00
2023-04-02T08:22:47.696Z,84.30
2023-04-02T08:25:14.793Z,84.60
2023-04-02T08:27:42.107Z,84.20
2023-04-02T08:30:12.582Z,83.30
2023-04-02T08:32:41.236Z,82.90
2023-04-02T08:35:10.056Z,83.00
2023-04-02T08:37:37.459Z,83.50
2023-04-02T08:40:07.699Z,84.10
2023-04-02T08:42:41.376Z,84.80
2023-04-02T08:45:54.604Z,83.70
2023-04-02T08:48:21.747Z,83.40
2023-04-02T08:50:49.392Z,83.20
2023-04-02T08:53:22.992Z,83.40
2023-04-02T08:56:18.967Z,83.40
2023-04-02T08:58:54.617Z,83.10
2023-04-02T09:01:41.567Z,83.00
2023-04-02T09:04:20.012Z,83.60
2023-04-02T09:06:48.401Z,84.00
2023-04-02T09:09:16.557Z,84.00
2023-04-02T09:11:52.254Z,83.30
2023-04-02T09:14:24.603Z,83.80
2023-04-02T09:17:00.510Z,84.40
2023-04-02T09:19:53.787Z,83.60
2023-04-02T09:22:26.382Z,83.90
2023-04-02T09:24:54.939Z,84.00
2023-04-02T09:27:31.939Z,83.70
2023-04-02T09:30:21.467Z,83.80
2023-04-02T09:32:51.680Z,83.80
2023-04-02T09:35:39.223Z,82.70
2023-04-02T09:38:21.588Z,84.00
2023-04-02T09:41:06.806Z,82.80
2023-04-02T09:43:36.242Z,82.50
2023-04-02T09:46:17.186Z,82.20
2023-04-02T09:48:54.722Z,83.20
2023-04-02T09:51:27.073Z,83.20
2023-04-02T09:54:03.050Z,82.20
2023-04-02T09:56:40.465Z,83.00
2023-04-02T09:59:13.114Z,82.50
2023-04-02T10:01:56.834Z,80.70
2023-04-02T10:04:49.156Z,82.00
2023-04-02T10:07:37.271Z,81.50
2023-04-02T10:10:27.209Z,81.20
2023-04-02T10:13:02.486Z,81.00
2023-04-02T10:15:56.286Z,80.50
2023-04-02T10:18:36.935Z,80.90
2023-04-02T10:21:05.990Z,80.20
2023-04-02T10:23:33.127Z,81.30
2023-04-02T10:26:11.998Z,81.10
2023-04-02T10:28:59.986Z,81.70
2023-04-02T10:31:41.076Z,83.10
2023-04-02T10:34:19.926Z,81.00
2023-04-02T10:36:53.028Z,80.10
2023-04-02T10:39:22.138Z,79.80
2023-04-02T10:42:04.447Z,79.10
2023-04-02T10:45:14.791Z,78.50
2023-04-02T10:48:30.679Z,78.60
2023-04-02T10:51:06.761Z,78.00
2023-04-02T10:53:48.365Z,79.30
2023-04-02T10:56:15.564Z,79.60
2023-04-02T10:59:13.468Z,78.80
2023-04-02T11:01:43.279Z,79.70
2023-04-02T11:04:21.368Z,78.80
2023-04-02T11:07:15.115Z,77.60
2023-04-02T11:09:45.468Z,77.80
2023-04-02T11:12:25.632Z,77.10
2023-04-02T11:14:54.377Z,78.30
2023-04-02T11:17:21.883Z,77.00
2023-04-02T11:19:49.618Z,77.90
2023-04-02T11:22:25.981Z,76.70
2023-04-02T11:24:54.730Z,77.80
2023-04-02T11:27:33.591Z,77.20
2023-04-02T11:30:14.173Z,76.10
2023-04-02T11:32:49.868Z,75.00
2023-04-02T11:35:36.515Z,76.40
2023-04-02T11:38:12.084Z,77.40
2023-04-02T11:40:48.839Z,77.30
2023-04-02T11:43:33.862Z,75.00
2023-04-02T11:46:27.005Z,75.90
2023-04-02T11:48:55.308Z,75.40
2023-04-02T11:51:22.618Z,73.30
2023-04-02T11:53:54.535Z,75.10
2023-04-02T11:56:30.034Z,74.20
2023-04-02T11:59:33.948Z,74.20
2023-04-02T12:02:12.161Z,73.90
2023-04-02T12:05:09.232Z,73.70
2023-04-02T12:08:07.434Z,73.90
2023-04-02T12:10:52.469Z,71.60
2023-04-02T12:13:21.821Z,72.20
2023-04-02T12:15:52.453Z,69.60
2023-04-02T12:18:24.595Z,70.20
2023-04-02T12:20:56.862Z,70.50
2023-04-02T12:23:33.107Z,71.90
2023-04-02T12:26:06.955Z,68.70
2023-04-02T12:28:38.011Z,68.30
2023-04-02T12:31:17.968Z,69.60
2023-04-02T12:33:45.837Z,68.80
2023-04-02T12:36:14.203Z,69.60
2023-04-02T12:38:58.209Z,68.80
2023-04-02T12:41:33.506Z,68.20
2023-04-02T12:44:06.505Z,68.50
2023-04-02T12:46:35.507Z,68.10
2023-04-02T12:49:21.173Z,67.10
2023-04-02T12:51:48.964Z,68.70
2023-04-02T12:54:20.634Z,68.20
2023-04-02T12:56:48.748Z,67.70
2023-04-02T12:59:34.752Z,68.40
2023-04-02T13:02:04.273Z,69.00
2023-04-02T13:04:31.372Z,67.30
2023-04-02T13:07:02.212Z,66.30
2023-04-02T13:09:35.896Z,66.00
2023-04-02T13:12:03.447Z,64.90
2023-04-02T13:14:31.244Z,64.60
2023-04-02T13:16:58.012Z,64.70
2023-04-02T13:19:29.644Z,65.60
2023-04-02T13:21:58.589Z,65.80
2023-04-02T13:24:28.373Z,64.90
2023-04-02T13:26:58.385Z,64.90
2023-04-02T13:29:34.449Z,66.10
2023-04-02T13:32:03.874Z,65.50
2023-04-02T13:34:31.500Z,61.50
2023-04-02T13:36:59.904Z,61.80
2023-04-02T13:39:27.147Z,62.80
2023-04-02T13:41:59.581Z,64.00
2023-04-02T13:44:37.034Z,61.30
2023-04-02T13:47:04.497Z,60.90
2023-04-02T13:49:32.020Z,63.20
2023-04-02T13:52:03.266Z,63.80
2023-04-02T13:54:49.272Z,62.70
2023-04-02T13:57:16.481Z,62.10
2023-04-02T13:59:43.530Z,62.40
2023-04-02T14:02:16.092Z,58.70
2023-04-02T14:04:51.161Z,59.00
2023-04-02T14:07:57.144Z,58.40
2023-04-02T14:10:55.225Z,58.40
2023-04-02T14:13:37.756Z,58.60
2023-04-02T14:16:16.524Z,57.50
2023-04-02T14:19:15.847Z,58.20
2023-04-02T14:22:06.735Z,57.50
2023-04-02T14:25:09.301Z,59.40
2023-04-02T14:28:03.106Z,59.60
2023-04-02T14:30:56.381Z,60.90
2023-04-02T14:34:02.940Z,58.80
2023-04-02T14:36:42.961Z,59.00
2023-04-02T14:39:28.561Z,59.10
2023-04-02T14:42:01.513Z,59.20
2023-04-02T14:44:32.402Z,59.30
2023-04-02T14:47:25.213Z,59.20
2023-04-02T14:49:57.395Z,57.70
2023-04-02T14:52:31.681Z,57.10
2023-04-02T14:55:12.379Z,54.70
2023-04-02T14:57:48.891Z,56.40
2023-04-02T15:00:34.585Z,56.40
2023-04-02T15:03:25.926Z,57.10
2023-04-02T15:06:08.399Z,55.70
2023-04-02T15:08:40.610Z,55.90
2023-04-02T15:11:22.707Z,56.10
2023-04-02T15:13:57.917Z,56.20
2023-04-02T15:16:28.929Z,56.00
2023-04-02T15:19:12.817Z,56.20
2023-04-02T15:22:17.174Z,56.00
2023-04-02T15:25:03.636Z,55.90
2023-04-02T15:27:58.901Z,55.60
2023-04-02T15:30:30.769Z,54.90
2023-04-02T15:33:32.878Z,55.50
2023-04-02T15:36:29.502Z,55.50
2023-04-02T15:39:09.104Z,54.90
2023-04-02T15:41:42.585Z,53.20
2023-04-02T15:44:14.340Z,53.80
2023-04-02T15:47:05.843Z,54.70
2023-04-02T15:49:40.687Z,52.70
2023-04-02T15:52:21.247Z,52.90
2023-04-02T15:55:25.972Z,52.00
2023-04-02T15:58:10.961Z,52.10
2023-04-02T16:01:08.412Z,52.80
2023-04-02T16:04:09.028Z,51.80
2023-04-02T16:07:20.694Z,51.90
2023-04-02T16:09:53.869Z,53.40
2023-04-02T16:12:21.707Z,53.20
2023-04-02T16:14:49.782Z,52.50
2023-04-02T16:17:27.979Z,51.80
2023-04-02T16:20:22.742Z,51.10
2023-04-02T16:23:28.295Z,51.40
2023-04-02T16:26:18.126Z,50.90
2023-04-02T16:28:52.732Z,51.10
2023-04-02T16:31:43.512Z,51.70
2023-04-02T16:34:21.062Z,52.50
2023-04-02T16:37:21.710Z,51.10
2023-04-02T16:40:13.042Z,51.60
2023-04-02T16:42:49.934Z,51.90
2023-04-02T16:45:30.973Z,51.80
2023-04-02T16:48:14.084Z,52.10
2023-04-02T16:50:58.654Z,52.90
2023-04-02T16:54:01.723Z,52.80
2023-04-02T16:56:50.706Z,52.50
2023-04-02T16:59:35.202Z,51.00
2023-04-02T17:02:27.103Z,50.70
2023-04-02T17:05:09.905Z,50.90
2023-04-02T17:08:13.128Z,50.20
2023-04-02T17:10:57.247Z,50.50
2023-04-02T17:13:48.606Z,51.60
2023-04-02T17:16:20.078Z,49.10
2023-04-02T17:18:49.801Z,49.30
2023-04-02T17:21:25.112Z,49.00
2023-04-02T17:24:09.904Z,48.70
2023-04-02T17:26:37.926Z,49.10
2023-04-02T17:29:12.978Z,48.90
2023-04-02T17:31:41.992Z,48.80
2023-04-02T17:34:14.490Z,48.80
2023-04-02T17:37:19.304Z,48.10
2023-04-02T17:40:26.206Z,48.30
2023-04-02T17:43:19.302Z,48.80
2023-04-02T17:45:56.303Z,48.50
2023-04-02T17:48:49.142Z,47.50
2023-04-02T17:51:35.707Z,46.50
2023-04-02T17:54:16.952Z,46.30
2023-04-02T17:56:58.495Z,47.00
2023-04-02T18:00:14.507Z,47.40
2023-04-02T18:03:12.301Z,47.70
2023-04-02T18:05:45.034Z,48.60
2023-04-02T18:08:25.893Z,48.90
2023-04-02T18:11:18.100Z,49.60
2023-04-02T18:14:16.787Z,50.10
2023-04-02T18:16:56.601Z,50.70
2023-04-02T18:19:46.903Z,51.10
2023-04-02T18:22:26.499Z,51.60
2023-04-02T18:25:15.733Z,52.10
2023-04-02T20:53:50.281Z,61.40
2023-04-02T20:56:17.805Z,61.30
2023-04-02T20:58:45.256Z,61.40
2023-04-02T21:01:15.555Z,61.50
2023-04-02T21:03:45.903Z,61.50
2023-04-02T21:06:18.605Z,61.50
2023-04-02T21:08:45.908Z,61.70
2023-04-02T21:11:13.690Z,61.70
2023-04-02T21:13:43.827Z,61.80
2023-04-02T21:16:20.655Z,61.60
2023-04-02T21:18:49.481Z,61.60
2023-04-02T21:21:16.682Z,61.70
2023-04-02T21:23:45.238Z,61.70
2023-04-02T21:26:16.966Z,61.90
2023-04-02T21:28:45.254Z,61.90
2023-04-02T21:31:14.656Z,61.70
2023-04-02T21:33:44.108Z,61.70
2023-04-02T21:36:13.962Z,61.80
2023-04-02T21:38:49.977Z,61.80
2023-04-02T21:41:29.100Z,61.90
2023-04-02T21:43:57.614Z,61.60
2023-04-02T21:46:27.220Z,61.80
2023-04-02T21:48:56.425Z,61.80
2023-04-02T21:51:25.968Z,61.80
2023-04-02T21:53:56.005Z,62.00
2023-04-02T21:56:26.521Z,61.70
2023-04-02T21:58:54.487Z,61.80
2023-04-02T22:01:27.314Z,61.80
2023-04-02T22:03:59.739Z,61.90
2023-04-02T22:06:29.050Z,62.00
2023-04-02T22:09:01.908Z,61.90
2023-04-02T22:11:31.816Z,62.00
2023-04-02T22:13:59.823Z,62.30
2023-04-02T22:16:28.945Z,62.30
2023-04-02T22:18:58.346Z,62.10
2023-04-02T22:21:26.038Z,62.10
2023-04-02T22:23:53.619Z,62.20
2023-04-02T22:26:22.917Z,62.10
2023-04-02T22:28:52.612Z,62.20
2023-04-02T22:31:22.989Z,62.20
2023-04-02T22:33:51.410Z,62.20
2023-04-02T22:36:19.577Z,62.10
2023-04-02T22:38:46.745Z,62.40
2023-04-02T22:41:19.924Z,62.40
2023-04-02T22:43:46.827Z,61.70
2023-04-02T22:46:16.472Z,62.00
2023-04-02T22:48:44.178Z,62.20
2023-04-02T22:51:15.087Z,62.20
2023-04-02T22:53:43.043Z,62.20
2023-04-02T22:56:14.140Z,62.00
2023-04-02T22:58:41.572Z,62.20
2023-04-02T23:01:24.676Z,62.20
2023-04-02T23:03:54.356Z,62.00
2023-04-02T23:06:22.510Z,62.20
2023-04-02T23:08:49.517Z,61.90
2023-04-02T23:11:22.309Z,61.70
2023-04-02T23:13:52.040Z,62.00
2023-04-02T23:16:20.022Z,62.10
2023-04-02T23:18:48.371Z,62.30
2023-04-02T23:21:16.405Z,62.20
2023-04-02T23:23:44.122Z,62.10
2023-04-02T23:26:24.488Z,62.30
2023-04-02T23:28:51.770Z,61.90
2023-04-02T23:31:21.787Z,62.10
2023-04-02T23:33:49.362Z,62.20
2023-04-02T23:36:24.457Z,62.40
2023-04-02T23:38:55.109Z,62.50
2023-04-02T23:41:23.790Z,62.60
2023-04-02T23:43:51.097Z,62.70
2023-04-02T23:46:18.095Z,62.70
2023-04-02T23:48:46.056Z,62.30
2023-04-02T23:51:13.960Z,62.40
2023-04-02T23:53:40.858Z,62.50
2023-04-02T23:56:07.828Z,62.60
2023-04-02T23:58:35.018Z,62.80
